sensor_id;sensor_type;location;lat;lon;timestamp;P1;durP1;ratioP1;P2;durP2;ratioP2
6223;SDS011;3145;42.726;23.342;2022-08-19T00:00:49;5.87;;;5.23;;
6223;SDS011;3145;42.726;23.342;2022-08-19T00:03:16;5.57;;;5.03;;
6223;SDS011;3145;42.726;23.342;2022-08-19T00:05:43;5.70;;;5.30;;
6223;SDS011;3145;42.726;23.342;2022-08-19T00:08:11;5.33;;;4.83;;
6223;SDS011;3145;42.726;23.342;2022-08-19T00:10:38;5.80;;;5.30;;
6223;SDS011;3145;42.726;23.342;2022-08-19T00:13:04;6.27;;;5.33;;
6223;SDS011;3145;42.726;23.342;2022-08-19T00:15:31;5.47;;;5.07;;
6223;SDS011;3145;42.726;23.342;2022-08-19T00:17:58;5.73;;;5.10;;
6223;SDS011;3145;42.726;23.342;2022-08-19T00:20:25;6.13;;;5.63;;
6223;SDS011;3145;42.726;23.342;2022-08-19T00:22:52;5.93;;;5.50;;
6223;SDS011;3145;42.726;23.342;2022-08-19T00:25:20;7.07;;;5.30;;
6223;SDS011;3145;42.726;23.342;2022-08-19T00:27:48;6.10;;;5.60;;
6223;SDS011;3145;42.726;23.342;2022-08-19T00:30:14;5.83;;;5.33;;
6223;SDS011;3145;42.726;23.342;2022-08-19T00:32:41;6.27;;;5.67;;
6223;SDS011;3145;42.726;23.342;2022-08-19T00:35:08;7.60;;;6.00;;
6223;SDS011;3145;42.726;23.342;2022-08-19T00:37:36;6.10;;;5.23;;
6223;SDS011;3145;42.726;23.342;2022-08-19T00:40:04;7.30;;;5.97;;
6223;SDS011;3145;42.726;23.342;2022-08-19T00:42:34;7.27;;;6.60;;
6223;SDS011;3145;42.726;23.342;2022-08-19T00:45:01;7.80;;;6.50;;
6223;SDS011;3145;42.726;23.342;2022-08-19T00:47:28;10.57;;;6.33;;
6223;SDS011;3145;42.726;23.342;2022-08-19T00:49:56;7.87;;;7.07;;
6223;SDS011;3145;42.726;23.342;2022-08-19T00:52:25;7.27;;;6.67;;
6223;SDS011;3145;42.726;23.342;2022-08-19T00:54:55;6.60;;;6.00;;
6223;SDS011;3145;42.726;23.342;2022-08-19T00:57:24;7.00;;;6.33;;
6223;SDS011;3145;42.726;23.342;2022-08-19T00:59:56;7.63;;;7.03;;
6223;SDS011;3145;42.726;23.342;2022-08-19T01:02:25;8.50;;;6.03;;
6223;SDS011;3145;42.726;23.342;2022-08-19T01:04:53;6.67;;;6.03;;
6223;SDS011;3145;42.726;23.342;2022-08-19T01:07:20;8.13;;;7.20;;
6223;SDS011;3145;42.726;23.342;2022-08-19T01:09:47;6.80;;;6.30;;
6223;SDS011;3145;42.726;23.342;2022-08-19T01:12:15;7.17;;;6.57;;
6223;SDS011;3145;42.726;23.342;2022-08-19T01:14:42;7.10;;;6.53;;
6223;SDS011;3145;42.726;23.342;2022-08-19T01:17:12;6.57;;;6.07;;
6223;SDS011;3145;42.726;23.342;2022-08-19T01:19:40;7.07;;;6.47;;
6223;SDS011;3145;42.726;23.342;2022-08-19T01:22:11;7.83;;;7.13;;
6223;SDS011;3145;42.726;23.342;2022-08-19T01:24:42;7.87;;;7.20;;
6223;SDS011;3145;42.726;23.342;2022-08-19T01:27:09;8.43;;;7.60;;
6223;SDS011;3145;42.726;23.342;2022-08-19T01:29:37;8.17;;;7.47;;
6223;SDS011;3145;42.726;23.342;2022-08-19T01:32:06;8.00;;;7.20;;
6223;SDS011;3145;42.726;23.342;2022-08-19T01:34:34;7.03;;;6.47;;
6223;SDS011;3145;42.726;23.342;2022-08-19T01:37:01;7.63;;;7.00;;
6223;SDS011;3145;42.726;23.342;2022-08-19T01:39:33;7.83;;;7.13;;
6223;SDS011;3145;42.726;23.342;2022-08-19T01:42:01;8.07;;;7.30;;
6223;SDS011;3145;42.726;23.342;2022-08-19T01:44:29;7.83;;;7.03;;
6223;SDS011;3145;42.726;23.342;2022-08-19T01:46:56;10.30;;;7.30;;
6223;SDS011;3145;42.726;23.342;2022-08-19T01:49:24;7.13;;;6.60;;
6223;SDS011;3145;42.726;23.342;2022-08-19T01:51:52;7.60;;;7.00;;
6223;SDS011;3145;42.726;23.342;2022-08-19T01:54:21;7.60;;;7.10;;
6223;SDS011;3145;42.726;23.342;2022-08-19T01:56:49;8.23;;;7.43;;
6223;SDS011;3145;42.726;23.342;2022-08-19T01:59:18;8.03;;;7.37;;
6223;SDS011;3145;42.726;23.342;2022-08-19T02:01:48;7.70;;;7.10;;
6223;SDS011;3145;42.726;23.342;2022-08-19T02:04:15;7.43;;;6.83;;
6223;SDS011;3145;42.726;23.342;2022-08-19T02:06:42;8.63;;;6.80;;
6223;SDS011;3145;42.726;23.342;2022-08-19T02:09:09;8.50;;;7.60;;
6223;SDS011;3145;42.726;23.342;2022-08-19T02:11:36;8.17;;;7.47;;
6223;SDS011;3145;42.726;23.342;2022-08-19T02:14:05;8.60;;;7.70;;
6223;SDS011;3145;42.726;23.342;2022-08-19T02:16:35;8.93;;;8.13;;
6223;SDS011;3145;42.726;23.342;2022-08-19T02:19:02;7.97;;;7.37;;
6223;SDS011;3145;42.726;23.342;2022-08-19T02:21:29;8.43;;;7.67;;
6223;SDS011;3145;42.726;23.342;2022-08-19T02:23:56;9.57;;;8.37;;
6223;SDS011;3145;42.726;23.342;2022-08-19T02:26:24;9.10;;;8.20;;
6223;SDS011;3145;42.726;23.342;2022-08-19T02:28:52;8.47;;;7.77;;
6223;SDS011;3145;42.726;23.342;2022-08-19T02:31:20;9.73;;;8.83;;
6223;SDS011;3145;42.726;23.342;2022-08-19T02:33:49;8.60;;;7.90;;
6223;SDS011;3145;42.726;23.342;2022-08-19T02:36:17;8.23;;;7.53;;
6223;SDS011;3145;42.726;23.342;2022-08-19T02:38:44;8.77;;;8.07;;
6223;SDS011;3145;42.726;23.342;2022-08-19T02:41:11;10.17;;;9.13;;
6223;SDS011;3145;42.726;23.342;2022-08-19T02:43:40;9.30;;;8.50;;
6223;SDS011;3145;42.726;23.342;2022-08-19T02:46:11;8.77;;;8.07;;
6223;SDS011;3145;42.726;23.342;2022-08-19T02:48:39;9.27;;;8.47;;
6223;SDS011;3145;42.726;23.342;2022-08-19T02:51:07;9.30;;;8.40;;
6223;SDS011;3145;42.726;23.342;2022-08-19T02:53:34;9.67;;;8.87;;
6223;SDS011;3145;42.726;23.342;2022-08-19T02:56:05;8.80;;;8.10;;
6223;SDS011;3145;42.726;23.342;2022-08-19T02:58:32;9.43;;;8.63;;
6223;SDS011;3145;42.726;23.342;2022-08-19T03:01:00;8.80;;;8.10;;
6223;SDS011;3145;42.726;23.342;2022-08-19T03:03:27;10.43;;;9.23;;
6223;SDS011;3145;42.726;23.342;2022-08-19T03:06:09;11.00;;;10.00;;
6223;SDS011;3145;42.726;23.342;2022-08-19T03:08:39;9.80;;;8.97;;
6223;SDS011;3145;42.726;23.342;2022-08-19T03:11:12;9.90;;;9.07;;
6223;SDS011;3145;42.726;23.342;2022-08-19T03:13:40;10.83;;;9.77;;
6223;SDS011;3145;42.726;23.342;2022-08-19T03:16:08;12.07;;;10.73;;
6223;SDS011;3145;42.726;23.342;2022-08-19T03:18:35;12.40;;;9.97;;
6223;SDS011;3145;42.726;23.342;2022-08-19T03:21:02;11.10;;;10.00;;
6223;SDS011;3145;42.726;23.342;2022-08-19T03:23:31;13.90;;;9.83;;
6223;SDS011;3145;42.726;23.342;2022-08-19T03:25:58;10.77;;;9.73;;
6223;SDS011;3145;42.726;23.342;2022-08-19T03:28:25;10.63;;;9.30;;
6223;SDS011;3145;42.726;23.342;2022-08-19T03:30:56;13.10;;;9.67;;
6223;SDS011;3145;42.726;23.342;2022-08-19T03:33:24;12.77;;;10.30;;
6223;SDS011;3145;42.726;23.342;2022-08-19T03:36:01;10.60;;;9.60;;
6223;SDS011;3145;42.726;23.342;2022-08-19T03:38:33;11.70;;;9.30;;
6223;SDS011;3145;42.726;23.342;2022-08-19T03:41:05;10.20;;;9.17;;
6223;SDS011;3145;42.726;23.342;2022-08-19T03:43:33;9.57;;;8.77;;
6223;SDS011;3145;42.726;23.342;2022-08-19T03:46:01;11.00;;;9.83;;
6223;SDS011;3145;42.726;23.342;2022-08-19T03:48:30;10.17;;;9.33;;
6223;SDS011;3145;42.726;23.342;2022-08-19T03:50:57;11.30;;;9.03;;
6223;SDS011;3145;42.726;23.342;2022-08-19T03:53:29;10.10;;;9.07;;
6223;SDS011;3145;42.726;23.342;2022-08-19T03:55:58;9.80;;;9.00;;
6223;SDS011;3145;42.726;23.342;2022-08-19T03:58:25;10.23;;;9.30;;
6223;SDS011;3145;42.726;23.342;2022-08-19T04:00:54;9.73;;;8.83;;
6223;SDS011;3145;42.726;23.342;2022-08-19T04:03:21;9.80;;;8.80;;
6223;SDS011;3145;42.726;23.342;2022-08-19T04:05:48;9.90;;;9.00;;
6223;SDS011;3145;42.726;23.342;2022-08-19T04:08:14;8.97;;;8.17;;
6223;SDS011;3145;42.726;23.342;2022-08-19T04:10:45;11.90;;;8.83;;
6223;SDS011;3145;42.726;23.342;2022-08-19T04:13:14;16.10;;;9.63;;
6223;SDS011;3145;42.726;23.342;2022-08-19T04:15:41;10.00;;;8.77;;
6223;SDS011;3145;42.726;23.342;2022-08-19T04:18:09;11.10;;;9.53;;
6223;SDS011;3145;42.726;23.342;2022-08-19T04:20:40;11.23;;;9.33;;
6223;SDS011;3145;42.726;23.342;2022-08-19T04:23:08;16.33;;;10.73;;
6223;SDS011;3145;42.726;23.342;2022-08-19T04:25:36;17.53;;;10.70;;
6223;SDS011;3145;42.726;23.342;2022-08-19T04:28:04;13.90;;;11.10;;
6223;SDS011;3145;42.726;23.342;2022-08-19T04:30:38;12.87;;;11.47;;
6223;SDS011;3145;42.726;23.342;2022-08-19T04:33:06;11.47;;;10.40;;
6223;SDS011;3145;42.726;23.342;2022-08-19T04:35:36;10.93;;;9.77;;
6223;SDS011;3145;42.726;23.342;2022-08-19T04:38:05;14.77;;;11.03;;
6223;SDS011;3145;42.726;23.342;2022-08-19T04:40:32;11.83;;;10.57;;
6223;SDS011;3145;42.726;23.342;2022-08-19T04:43:17;14.07;;;10.87;;
6223;SDS011;3145;42.726;23.342;2022-08-19T04:45:46;11.90;;;10.80;;
6223;SDS011;3145;42.726;23.342;2022-08-19T04:48:12;11.23;;;10.30;;
6223;SDS011;3145;42.726;23.342;2022-08-19T04:50:40;12.80;;;10.80;;
6223;SDS011;3145;42.726;23.342;2022-08-19T04:53:08;14.63;;;10.93;;
6223;SDS011;3145;42.726;23.342;2022-08-19T04:55:38;12.73;;;10.53;;
6223;SDS011;3145;42.726;23.342;2022-08-19T04:58:05;13.27;;;10.53;;
6223;SDS011;3145;42.726;23.342;2022-08-19T05:00:32;11.70;;;9.73;;
6223;SDS011;3145;42.726;23.342;2022-08-19T05:03:00;11.07;;;10.00;;
6223;SDS011;3145;42.726;23.342;2022-08-19T05:05:27;13.90;;;8.83;;
6223;SDS011;3145;42.726;23.342;2022-08-19T05:07:55;12.30;;;10.57;;
6223;SDS011;3145;42.726;23.342;2022-08-19T05:10:22;13.10;;;10.50;;
6223;SDS011;3145;42.726;23.342;2022-08-19T05:12:49;17.20;;;9.73;;
6223;SDS011;3145;42.726;23.342;2022-08-19T05:15:16;11.33;;;9.47;;
6223;SDS011;3145;42.726;23.342;2022-08-19T05:17:43;14.23;;;10.67;;
6223;SDS011;3145;42.726;23.342;2022-08-19T05:20:31;13.23;;;10.27;;
6223;SDS011;3145;42.726;23.342;2022-08-19T05:23:16;10.60;;;9.30;;
6223;SDS011;3145;42.726;23.342;2022-08-19T05:25:43;12.10;;;10.05;;
6223;SDS011;3145;42.726;23.342;2022-08-19T05:28:09;10.90;;;9.65;;
6223;SDS011;3145;42.726;23.342;2022-08-19T05:30:36;16.00;;;10.63;;
6223;SDS011;3145;42.726;23.342;2022-08-19T05:33:03;16.75;;;10.95;;
6223;SDS011;3145;42.726;23.342;2022-08-19T05:35:30;11.88;;;10.80;;
6223;SDS011;3145;42.726;23.342;2022-08-19T05:37:58;15.10;;;10.15;;
6223;SDS011;3145;42.726;23.342;2022-08-19T05:40:24;10.23;;;9.32;;
6223;SDS011;3145;42.726;23.342;2022-08-19T05:42:51;11.20;;;10.20;;
6223;SDS011;3145;42.726;23.342;2022-08-19T05:45:18;14.18;;;12.80;;
6223;SDS011;3145;42.726;23.342;2022-08-19T05:47:46;22.30;;;16.42;;
6223;SDS011;3145;42.726;23.342;2022-08-19T05:50:13;19.98;;;15.65;;
6223;SDS011;3145;42.726;23.342;2022-08-19T05:52:43;16.83;;;15.18;;
6223;SDS011;3145;42.726;23.342;2022-08-19T05:55:10;14.20;;;12.77;;
6223;SDS011;3145;42.726;23.342;2022-08-19T05:57:37;18.60;;;14.00;;
6223;SDS011;3145;42.726;23.342;2022-08-19T06:00:05;14.68;;;13.27;;
6223;SDS011;3145;42.726;23.342;2022-08-19T06:02:34;15.57;;;14.07;;
6223;SDS011;3145;42.726;23.342;2022-08-19T06:05:02;21.15;;;17.05;;
6223;SDS011;3145;42.726;23.342;2022-08-19T06:07:31;24.25;;;16.42;;
6223;SDS011;3145;42.726;23.342;2022-08-19T06:09:59;18.08;;;14.82;;
6223;SDS011;3145;42.726;23.342;2022-08-19T06:12:26;20.52;;;13.77;;
6223;SDS011;3145;42.726;23.342;2022-08-19T06:14:56;12.18;;;10.73;;
6223;SDS011;3145;42.726;23.342;2022-08-19T06:17:23;13.63;;;11.38;;
6223;SDS011;3145;42.726;23.342;2022-08-19T06:19:51;14.40;;;10.60;;
6223;SDS011;3145;42.726;23.342;2022-08-19T06:22:18;9.98;;;9.10;;
6223;SDS011;3145;42.726;23.342;2022-08-19T06:24:44;10.35;;;9.48;;
6223;SDS011;3145;42.726;23.342;2022-08-19T06:27:12;9.60;;;8.27;;
6223;SDS011;3145;42.726;23.342;2022-08-19T06:29:41;10.95;;;8.93;;
6223;SDS011;3145;42.726;23.342;2022-08-19T06:32:07;8.63;;;7.43;;
6223;SDS011;3145;42.726;23.342;2022-08-19T06:34:35;8.60;;;7.88;;
6223;SDS011;3145;42.726;23.342;2022-08-19T06:37:01;7.43;;;6.90;;
6223;SDS011;3145;42.726;23.342;2022-08-19T06:39:36;6.72;;;6.20;;
6223;SDS011;3145;42.726;23.342;2022-08-19T06:42:04;7.57;;;7.03;;
6223;SDS011;3145;42.726;23.342;2022-08-19T06:44:35;8.20;;;7.40;;
6223;SDS011;3145;42.726;23.342;2022-08-19T06:47:05;9.55;;;8.75;;
6223;SDS011;3145;42.726;23.342;2022-08-19T06:49:33;9.13;;;8.35;;
6223;SDS011;3145;42.726;23.342;2022-08-19T06:52:01;11.75;;;10.75;;
6223;SDS011;3145;42.726;23.342;2022-08-19T06:54:28;12.13;;;8.68;;
6223;SDS011;3145;42.726;23.342;2022-08-19T06:56:55;7.88;;;7.10;;
6223;SDS011;3145;42.726;23.342;2022-08-19T06:59:23;7.78;;;6.65;;
6223;SDS011;3145;42.726;23.342;2022-08-19T07:01:54;7.13;;;6.38;;
6223;SDS011;3145;42.726;23.342;2022-08-19T07:04:22;8.35;;;7.32;;
6223;SDS011;3145;42.726;23.342;2022-08-19T07:06:56;7.25;;;6.50;;
6223;SDS011;3145;42.726;23.342;2022-08-19T07:09:24;8.38;;;7.72;;
6223;SDS011;3145;42.726;23.342;2022-08-19T07:11:52;9.20;;;6.90;;
6223;SDS011;3145;42.726;23.342;2022-08-19T07:14:20;8.75;;;6.63;;
6223;SDS011;3145;42.726;23.342;2022-08-19T07:16:50;7.30;;;6.72;;
6223;SDS011;3145;42.726;23.342;2022-08-19T07:19:21;7.10;;;6.60;;
6223;SDS011;3145;42.726;23.342;2022-08-19T07:21:49;9.25;;;6.53;;
6223;SDS011;3145;42.726;23.342;2022-08-19T07:24:18;7.45;;;6.32;;
6223;SDS011;3145;42.726;23.342;2022-08-19T07:26:45;6.43;;;5.82;;
6223;SDS011;3145;42.726;23.342;2022-08-19T07:29:12;11.88;;;6.22;;
6223;SDS011;3145;42.726;23.342;2022-08-19T07:31:40;7.15;;;6.50;;
6223;SDS011;3145;42.726;23.342;2022-08-19T07:34:08;7.55;;;5.90;;
6223;SDS011;3145;42.726;23.342;2022-08-19T07:36:38;6.22;;;5.72;;
6223;SDS011;3145;42.726;23.342;2022-08-19T07:39:08;6.18;;;5.57;;
6223;SDS011;3145;42.726;23.342;2022-08-19T07:41:37;6.47;;;5.72;;
6223;SDS011;3145;42.726;23.342;2022-08-19T07:44:05;7.05;;;6.35;;
6223;SDS011;3145;42.726;23.342;2022-08-19T07:46:33;9.70;;;6.15;;
6223;SDS011;3145;42.726;23.342;2022-08-19T07:49:02;7.95;;;5.20;;
6223;SDS011;3145;42.726;23.342;2022-08-19T07:51:30;7.45;;;5.57;;
6223;SDS011;3145;42.726;23.342;2022-08-19T07:53:59;7.85;;;5.75;;
6223;SDS011;3145;42.726;23.342;2022-08-19T07:56:26;7.50;;;6.13;;
6223;SDS011;3145;42.726;23.342;2022-08-19T07:58:53;7.72;;;5.90;;
6223;SDS011;3145;42.726;23.342;2022-08-19T08:01:20;6.90;;;5.93;;
6223;SDS011;3145;42.726;23.342;2022-08-19T08:03:49;5.82;;;5.35;;
6223;SDS011;3145;42.726;23.342;2022-08-19T08:06:35;12.20;;;5.22;;
6223;SDS011;3145;42.726;23.342;2022-08-19T08:09:42;5.40;;;4.90;;
6223;SDS011;3145;42.726;23.342;2022-08-19T08:12:10;10.15;;;5.57;;
6223;SDS011;3145;42.726;23.342;2022-08-19T08:14:42;8.73;;;5.20;;
6223;SDS011;3145;42.726;23.342;2022-08-19T08:17:11;12.70;;;5.35;;
6223;SDS011;3145;42.726;23.342;2022-08-19T08:19:39;6.97;;;5.20;;
6223;SDS011;3145;42.726;23.342;2022-08-19T08:22:06;5.82;;;5.35;;
6223;SDS011;3145;42.726;23.342;2022-08-19T08:24:56;8.75;;;5.20;;
6223;SDS011;3145;42.726;23.342;2022-08-19T08:27:24;10.07;;;5.05;;
6223;SDS011;3145;42.726;23.342;2022-08-19T08:29:54;5.07;;;4.75;;
6223;SDS011;3145;42.726;23.342;2022-08-19T08:32:20;6.28;;;4.90;;
6223;SDS011;3145;42.726;23.342;2022-08-19T08:34:47;6.15;;;4.88;;
6223;SDS011;3145;42.726;23.342;2022-08-19T08:37:14;5.30;;;4.47;;
6223;SDS011;3145;42.726;23.342;2022-08-19T08:39:41;7.43;;;4.80;;
6223;SDS011;3145;42.726;23.342;2022-08-19T08:42:11;5.72;;;4.85;;
6223;SDS011;3145;42.726;23.342;2022-08-19T08:44:48;10.45;;;6.18;;
6223;SDS011;3145;42.726;23.342;2022-08-19T08:47:20;6.10;;;5.05;;
6223;SDS011;3145;42.726;23.342;2022-08-19T08:49:50;5.75;;;4.75;;
6223;SDS011;3145;42.726;23.342;2022-08-19T08:52:21;6.03;;;5.57;;
6223;SDS011;3145;42.726;23.342;2022-08-19T08:54:50;6.57;;;5.90;;
6223;SDS011;3145;42.726;23.342;2022-08-19T08:57:23;5.60;;;5.10;;
6223;SDS011;3145;42.726;23.342;2022-08-19T08:59:55;6.32;;;5.70;;
6223;SDS011;3145;42.726;23.342;2022-08-19T09:02:23;7.75;;;5.22;;
6223;SDS011;3145;42.726;23.342;2022-08-19T09:04:51;6.32;;;4.53;;
6223;SDS011;3145;42.726;23.342;2022-08-19T09:07:22;6.05;;;4.78;;
6223;SDS011;3145;42.726;23.342;2022-08-19T09:10:02;12.65;;;5.00;;
6223;SDS011;3145;42.726;23.342;2022-08-19T09:12:35;7.68;;;4.75;;
6223;SDS011;3145;42.726;23.342;2022-08-19T09:15:12;8.20;;;4.95;;
6223;SDS011;3145;42.726;23.342;2022-08-19T09:17:41;7.93;;;5.05;;
6223;SDS011;3145;42.726;23.342;2022-08-19T09:20:14;9.15;;;4.68;;
6223;SDS011;3145;42.726;23.342;2022-08-19T09:22:44;8.55;;;5.10;;
6223;SDS011;3145;42.726;23.342;2022-08-19T09:25:12;5.05;;;4.40;;
6223;SDS011;3145;42.726;23.342;2022-08-19T09:27:42;6.53;;;4.07;;
6223;SDS011;3145;42.726;23.342;2022-08-19T09:30:13;5.40;;;4.22;;
6223;SDS011;3145;42.726;23.342;2022-08-19T09:32:42;6.47;;;3.42;;
6223;SDS011;3145;42.726;23.342;2022-08-19T09:35:10;3.22;;;2.92;;
6223;SDS011;3145;42.726;23.342;2022-08-19T09:37:39;3.15;;;2.80;;
6223;SDS011;3145;42.726;23.342;2022-08-19T09:40:08;3.08;;;2.88;;
6223;SDS011;3145;42.726;23.342;2022-08-19T09:42:36;3.22;;;2.92;;
6223;SDS011;3145;42.726;23.342;2022-08-19T09:45:05;3.47;;;3.05;;
6223;SDS011;3145;42.726;23.342;2022-08-19T09:47:32;2.92;;;2.72;;
6223;SDS011;3145;42.726;23.342;2022-08-19T09:50:01;3.30;;;3.10;;
6223;SDS011;3145;42.726;23.342;2022-08-19T09:52:27;3.38;;;3.08;;
6223;SDS011;3145;42.726;23.342;2022-08-19T09:54:54;4.03;;;2.70;;
6223;SDS011;3145;42.726;23.342;2022-08-19T09:57:21;5.63;;;3.17;;
6223;SDS011;3145;42.726;23.342;2022-08-19T09:59:47;3.10;;;2.90;;
6223;SDS011;3145;42.726;23.342;2022-08-19T10:02:15;6.50;;;3.38;;
6223;SDS011;3145;42.726;23.342;2022-08-19T10:04:43;3.63;;;3.33;;
6223;SDS011;3145;42.726;23.342;2022-08-19T10:07:28;5.68;;;3.50;;
6223;SDS011;3145;42.726;23.342;2022-08-19T10:09:55;6.85;;;3.15;;
6223;SDS011;3145;42.726;23.342;2022-08-19T10:12:22;5.25;;;3.10;;
6223;SDS011;3145;42.726;23.342;2022-08-19T10:14:49;6.28;;;3.63;;
6223;SDS011;3145;42.726;23.342;2022-08-19T10:17:19;3.15;;;2.95;;
6223;SDS011;3145;42.726;23.342;2022-08-19T10:19:46;7.10;;;3.28;;
6223;SDS011;3145;42.726;23.342;2022-08-19T10:22:13;3.90;;;3.55;;
6223;SDS011;3145;42.726;23.342;2022-08-19T10:24:40;6.78;;;4.28;;
6223;SDS011;3145;42.726;23.342;2022-08-19T10:27:07;3.80;;;3.30;;
6223;SDS011;3145;42.726;23.342;2022-08-19T10:29:34;4.05;;;3.38;;
6223;SDS011;3145;42.726;23.342;2022-08-19T10:32:03;5.50;;;3.40;;
6223;SDS011;3145;42.726;23.342;2022-08-19T10:34:34;3.75;;;3.30;;
6223;SDS011;3145;42.726;23.342;2022-08-19T10:37:02;3.70;;;3.40;;
6223;SDS011;3145;42.726;23.342;2022-08-19T10:39:31;3.75;;;3.42;;
6223;SDS011;3145;42.726;23.342;2022-08-19T10:41:58;4.00;;;3.70;;
6223;SDS011;3145;42.726;23.342;2022-08-19T10:44:25;4.57;;;3.70;;
6223;SDS011;3145;42.726;23.342;2022-08-19T10:46:53;4.00;;;3.70;;
6223;SDS011;3145;42.726;23.342;2022-08-19T10:49:20;4.75;;;4.22;;
6223;SDS011;3145;42.726;23.342;2022-08-19T10:51:50;4.25;;;3.97;;
6223;SDS011;3145;42.726;23.342;2022-08-19T10:54:34;4.45;;;4.03;;
6223;SDS011;3145;42.726;23.342;2022-08-19T10:57:18;4.70;;;3.55;;
6223;SDS011;3145;42.726;23.342;2022-08-19T10:59:45;3.88;;;3.65;;
6223;SDS011;3145;42.726;23.342;2022-08-19T11:02:12;4.07;;;3.75;;
6223;SDS011;3145;42.726;23.342;2022-08-19T11:04:39;4.25;;;3.83;;
6223;SDS011;3145;42.726;23.342;2022-08-19T11:07:08;5.13;;;3.70;;
6223;SDS011;3145;42.726;23.342;2022-08-19T11:09:37;4.60;;;4.22;;
6223;SDS011;3145;42.726;23.342;2022-08-19T11:12:06;5.22;;;3.53;;
6223;SDS011;3145;42.726;23.342;2022-08-19T11:14:34;4.53;;;3.92;;
6223;SDS011;3145;42.726;23.342;2022-08-19T11:17:02;4.60;;;3.85;;
6223;SDS011;3145;42.726;23.342;2022-08-19T11:19:31;5.25;;;3.80;;
6223;SDS011;3145;42.726;23.342;2022-08-19T11:21:58;4.40;;;4.10;;
6223;SDS011;3145;42.726;23.342;2022-08-19T11:24:28;14.63;;;4.07;;
6223;SDS011;3145;42.726;23.342;2022-08-19T11:27:00;4.90;;;4.43;;
6223;SDS011;3145;42.726;23.342;2022-08-19T11:29:29;4.97;;;4.00;;
6223;SDS011;3145;42.726;23.342;2022-08-19T11:31:57;6.15;;;4.05;;
6223;SDS011;3145;42.726;23.342;2022-08-19T11:34:24;4.50;;;4.10;;
6223;SDS011;3145;42.726;23.342;2022-08-19T11:36:54;4.40;;;4.00;;
6223;SDS011;3145;42.726;23.342;2022-08-19T11:39:24;4.78;;;4.22;;
6223;SDS011;3145;42.726;23.342;2022-08-19T11:41:53;4.15;;;3.85;;
6223;SDS011;3145;42.726;23.342;2022-08-19T11:44:20;4.47;;;4.07;;
6223;SDS011;3145;42.726;23.342;2022-08-19T11:46:47;4.38;;;3.97;;
6223;SDS011;3145;42.726;23.342;2022-08-19T11:49:14;4.10;;;3.80;;
6223;SDS011;3145;42.726;23.342;2022-08-19T11:51:43;4.85;;;4.40;;
6223;SDS011;3145;42.726;23.342;2022-08-19T11:54:10;5.55;;;4.15;;
6223;SDS011;3145;42.726;23.342;2022-08-19T11:56:39;7.50;;;4.70;;
6223;SDS011;3145;42.726;23.342;2022-08-19T11:59:07;4.70;;;4.30;;
6223;SDS011;3145;42.726;23.342;2022-08-19T12:01:34;8.75;;;4.35;;
6223;SDS011;3145;42.726;23.342;2022-08-19T12:04:01;5.03;;;4.63;;
6223;SDS011;3145;42.726;23.342;2022-08-19T12:06:30;5.35;;;4.13;;
6223;SDS011;3145;42.726;23.342;2022-08-19T12:09:00;4.82;;;4.43;;
6223;SDS011;3145;42.726;23.342;2022-08-19T12:11:29;5.05;;;4.65;;
6223;SDS011;3145;42.726;23.342;2022-08-19T12:13:56;4.82;;;4.20;;
6223;SDS011;3145;42.726;23.342;2022-08-19T12:16:25;4.82;;;4.30;;
6223;SDS011;3145;42.726;23.342;2022-08-19T12:18:54;5.10;;;4.60;;
6223;SDS011;3145;42.726;23.342;2022-08-19T12:21:23;5.15;;;4.70;;
6223;SDS011;3145;42.726;23.342;2022-08-19T12:23:53;5.60;;;5.10;;
6223;SDS011;3145;42.726;23.342;2022-08-19T12:26:22;6.10;;;4.80;;
6223;SDS011;3145;42.726;23.342;2022-08-19T12:28:49;9.07;;;4.32;;
6223;SDS011;3145;42.726;23.342;2022-08-19T12:31:16;6.95;;;4.63;;
6223;SDS011;3145;42.726;23.342;2022-08-19T12:33:45;4.80;;;4.20;;
6223;SDS011;3145;42.726;23.342;2022-08-19T12:36:13;5.00;;;4.50;;
6223;SDS011;3145;42.726;23.342;2022-08-19T12:38:41;4.70;;;4.03;;
6223;SDS011;3145;42.726;23.342;2022-08-19T12:41:09;6.65;;;3.90;;
6223;SDS011;3145;42.726;23.342;2022-08-19T12:43:37;4.18;;;3.88;;
6223;SDS011;3145;42.726;23.342;2022-08-19T12:46:04;4.00;;;3.58;;
6223;SDS011;3145;42.726;23.342;2022-08-19T12:48:32;3.92;;;3.47;;
6223;SDS011;3145;42.726;23.342;2022-08-19T12:51:05;4.32;;;3.42;;
6223;SDS011;3145;42.726;23.342;2022-08-19T12:53:34;4.28;;;3.92;;
6223;SDS011;3145;42.726;23.342;2022-08-19T12:56:01;4.22;;;3.85;;
6223;SDS011;3145;42.726;23.342;2022-08-19T12:58:28;4.40;;;3.90;;
6223;SDS011;3145;42.726;23.342;2022-08-19T13:00:57;6.50;;;4.07;;
6223;SDS011;3145;42.726;23.342;2022-08-19T13:03:24;4.15;;;3.80;;
6223;SDS011;3145;42.726;23.342;2022-08-19T13:05:54;4.18;;;3.53;;
6223;SDS011;3145;42.726;23.342;2022-08-19T13:08:22;3.78;;;3.58;;
6223;SDS011;3145;42.726;23.342;2022-08-19T13:10:49;4.15;;;3.83;;
6223;SDS011;3145;42.726;23.342;2022-08-19T13:13:16;4.40;;;3.95;;
6223;SDS011;3145;42.726;23.342;2022-08-19T13:15:43;4.20;;;3.90;;
6223;SDS011;3145;42.726;23.342;2022-08-19T13:18:11;4.47;;;4.07;;
6223;SDS011;3145;42.726;23.342;2022-08-19T13:20:38;4.97;;;3.92;;
6223;SDS011;3145;42.726;23.342;2022-08-19T13:23:06;5.55;;;4.15;;
6223;SDS011;3145;42.726;23.342;2022-08-19T13:25:34;4.35;;;3.70;;
6223;SDS011;3145;42.726;23.342;2022-08-19T13:28:02;4.55;;;3.97;;
6223;SDS011;3145;42.726;23.342;2022-08-19T13:30:29;4.80;;;4.40;;
6223;SDS011;3145;42.726;23.342;2022-08-19T13:33:13;6.55;;;4.35;;
6223;SDS011;3145;42.726;23.342;2022-08-19T13:35:41;3.95;;;3.65;;
6223;SDS011;3145;42.726;23.342;2022-08-19T13:38:10;4.82;;;4.28;;
6223;SDS011;3145;42.726;23.342;2022-08-19T13:40:39;10.80;;;4.03;;
6223;SDS011;3145;42.726;23.342;2022-08-19T13:43:07;4.05;;;3.72;;
6223;SDS011;3145;42.726;23.342;2022-08-19T13:45:34;4.55;;;4.13;;
6223;SDS011;3145;42.726;23.342;2022-08-19T13:48:02;4.57;;;4.25;;
6223;SDS011;3145;42.726;23.342;2022-08-19T13:50:34;4.85;;;4.45;;
6223;SDS011;3145;42.726;23.342;2022-08-19T13:53:05;6.82;;;4.65;;
6223;SDS011;3145;42.726;23.342;2022-08-19T13:55:32;4.40;;;4.00;;
6223;SDS011;3145;42.726;23.342;2022-08-19T13:58:02;4.15;;;3.83;;
6223;SDS011;3145;42.726;23.342;2022-08-19T14:00:31;4.53;;;3.97;;
6223;SDS011;3145;42.726;23.342;2022-08-19T14:02:59;5.28;;;3.80;;
6223;SDS011;3145;42.726;23.342;2022-08-19T14:05:26;4.93;;;4.53;;
6223;SDS011;3145;42.726;23.342;2022-08-19T14:07:54;6.18;;;4.15;;
6223;SDS011;3145;42.726;23.342;2022-08-19T14:10:21;4.15;;;3.80;;
6223;SDS011;3145;42.726;23.342;2022-08-19T14:12:51;5.20;;;4.25;;
6223;SDS011;3145;42.726;23.342;2022-08-19T14:15:21;5.70;;;3.97;;
6223;SDS011;3145;42.726;23.342;2022-08-19T14:17:49;4.95;;;4.20;;
6223;SDS011;3145;42.726;23.342;2022-08-19T14:20:16;5.15;;;4.65;;
6223;SDS011;3145;42.726;23.342;2022-08-19T14:22:43;5.03;;;4.22;;
6223;SDS011;3145;42.726;23.342;2022-08-19T14:25:12;4.80;;;4.50;;
6223;SDS011;3145;42.726;23.342;2022-08-19T14:27:40;4.82;;;4.40;;
6223;SDS011;3145;42.726;23.342;2022-08-19T14:30:08;4.75;;;4.35;;
6223;SDS011;3145;42.726;23.342;2022-08-19T14:32:38;4.70;;;4.30;;
6223;SDS011;3145;42.726;23.342;2022-08-19T14:35:05;5.25;;;4.53;;
6223;SDS011;3145;42.726;23.342;2022-08-19T14:37:33;5.40;;;4.88;;
6223;SDS011;3145;42.726;23.342;2022-08-19T14:40:00;5.07;;;4.57;;
6223;SDS011;3145;42.726;23.342;2022-08-19T14:42:27;4.90;;;4.50;;
6223;SDS011;3145;42.726;23.342;2022-08-19T14:44:56;5.38;;;4.63;;
6223;SDS011;3145;42.726;23.342;2022-08-19T14:47:24;7.22;;;4.68;;
6223;SDS011;3145;42.726;23.342;2022-08-19T14:49:53;5.03;;;4.53;;
6223;SDS011;3145;42.726;23.342;2022-08-19T14:52:20;7.18;;;4.80;;
6223;SDS011;3145;42.726;23.342;2022-08-19T14:54:46;6.95;;;4.40;;
6223;SDS011;3145;42.726;23.342;2022-08-19T14:57:13;6.00;;;4.90;;
6223;SDS011;3145;42.726;23.342;2022-08-19T14:59:41;4.70;;;4.30;;
6223;SDS011;3145;42.726;23.342;2022-08-19T15:02:08;4.82;;;4.35;;
6223;SDS011;3145;42.726;23.342;2022-08-19T15:04:34;5.05;;;4.65;;